sensor_id;sensor_type;location;lat;lon;timestamp;P1;durP1;ratioP1;P2;durP2;ratioP2
10440;SDS011;5268;49.346;9.522;2022-10-31T04:25:16;6.80;;;4.00;;
10440;SDS011;5268;49.346;9.522;2022-10-31T04:30:19;4.57;;;3.80;;
10440;SDS011;5268;49.346;9.522;2022-10-31T04:35:23;9.20;;;4.13;;
10440;SDS011;5268;49.346;9.522;2022-10-31T04:40:26;4.43;;;3.85;;
10440;SDS011;5268;49.346;9.522;2022-10-31T04:45:28;6.70;;;4.07;;
10440;SDS011;5268;49.346;9.522;2022-10-31T04:50:30;6.93;;;3.97;;
10440;SDS011;5268;49.346;9.522;2022-10-31T04:55:33;7.80;;;5.05;;
10440;SDS011;5268;49.346;9.522;2022-10-31T05:00:36;7.22;;;4.93;;
10440;SDS011;5268;49.346;9.522;2022-10-31T05:05:38;7.70;;;3.55;;
10440;SDS011;5268;49.346;9.522;2022-10-31T05:10:42;5.75;;;3.70;;
10440;SDS011;5268;49.346;9.522;2022-10-31T05:15:44;8.32;;;5.18;;
10440;SDS011;5268;49.346;9.522;2022-10-31T05:20:46;8.05;;;5.40;;
10440;SDS011;5268;49.346;9.522;2022-10-31T05:25:56;8.88;;;5.35;;
10440;SDS011;5268;49.346;9.522;2022-10-31T05:30:58;6.85;;;4.68;;
10440;SDS011;5268;49.346;9.522;2022-10-31T05:36:00;8.27;;;4.45;;
10440;SDS011;5268;49.346;9.522;2022-10-31T05:41:04;5.72;;;3.60;;
10440;SDS011;5268;49.346;9.522;2022-10-31T05:46:06;7.63;;;4.45;;
10440;SDS011;5268;49.346;9.522;2022-10-31T05:51:08;6.43;;;3.50;;
10440;SDS011;5268;49.346;9.522;2022-10-31T05:56:11;7.88;;;4.40;;
10440;SDS011;5268;49.346;9.522;2022-10-31T06:01:13;8.05;;;4.65;;
10440;SDS011;5268;49.346;9.522;2022-10-31T06:06:15;5.72;;;3.92;;
10440;SDS011;5268;49.346;9.522;2022-10-31T06:11:19;9.82;;;4.10;;
10440;SDS011;5268;49.346;9.522;2022-10-31T06:16:23;6.07;;;3.80;;
10440;SDS011;5268;49.346;9.522;2022-10-31T06:21:25;7.53;;;4.20;;
10440;SDS011;5268;49.346;9.522;2022-10-31T06:26:29;7.57;;;4.00;;
10440;SDS011;5268;49.346;9.522;2022-10-31T06:31:31;5.50;;;3.92;;
10440;SDS011;5268;49.346;9.522;2022-10-31T06:36:33;10.02;;;4.10;;
10440;SDS011;5268;49.346;9.522;2022-10-31T06:41:36;10.38;;;4.30;;
10440;SDS011;5268;49.346;9.522;2022-10-31T06:46:39;13.02;;;5.90;;
10440;SDS011;5268;49.346;9.522;2022-10-31T06:51:41;16.42;;;7.97;;
10440;SDS011;5268;49.346;9.522;2022-10-31T06:56:46;9.88;;;5.97;;
10440;SDS011;5268;49.346;9.522;2022-10-31T07:01:48;10.50;;;6.00;;
10440;SDS011;5268;49.346;9.522;2022-10-31T07:06:51;10.73;;;5.88;;
10440;SDS011;5268;49.346;9.522;2022-10-31T07:11:54;13.20;;;8.80;;
10440;SDS011;5268;49.346;9.522;2022-10-31T07:16:56;10.98;;;7.50;;
10440;SDS011;5268;49.346;9.522;2022-10-31T07:21:58;14.45;;;8.75;;
10440;SDS011;5268;49.346;9.522;2022-10-31T07:27:02;12.35;;;7.90;;
10440;SDS011;5268;49.346;9.522;2022-10-31T07:32:04;13.30;;;7.75;;
10440;SDS011;5268;49.346;9.522;2022-10-31T07:37:07;12.50;;;7.00;;
10440;SDS011;5268;49.346;9.522;2022-10-31T07:42:10;10.35;;;7.95;;
10440;SDS011;5268;49.346;9.522;2022-10-31T07:47:12;11.13;;;6.80;;
10440;SDS011;5268;49.346;9.522;2022-10-31T07:52:14;10.30;;;6.47;;
10440;SDS011;5268;49.346;9.522;2022-10-31T07:57:17;12.77;;;7.28;;
10440;SDS011;5268;49.346;9.522;2022-10-31T08:02:19;7.47;;;5.60;;
10440;SDS011;5268;49.346;9.522;2022-10-31T08:07:22;6.85;;;5.40;;
10440;SDS011;5268;49.346;9.522;2022-10-31T08:12:25;6.28;;;4.90;;
10440;SDS011;5268;49.346;9.522;2022-10-31T08:17:27;6.35;;;4.63;;
10440;SDS011;5268;49.346;9.522;2022-10-31T08:22:29;9.60;;;5.40;;
10440;SDS011;5268;49.346;9.522;2022-10-31T08:27:33;10.80;;;5.68;;
10440;SDS011;5268;49.346;9.522;2022-10-31T08:32:35;7.30;;;5.00;;
10440;SDS011;5268;49.346;9.522;2022-10-31T08:37:37;6.45;;;4.72;;
10440;SDS011;5268;49.346;9.522;2022-10-31T08:42:40;11.93;;;4.95;;
10440;SDS011;5268;49.346;9.522;2022-10-31T08:47:42;13.18;;;5.15;;
10440;SDS011;5268;49.346;9.522;2022-10-31T08:52:44;6.35;;;4.85;;
10440;SDS011;5268;49.346;9.522;2022-10-31T08:57:48;6.88;;;4.57;;
10440;SDS011;5268;49.346;9.522;2022-10-31T09:02:56;8.05;;;5.53;;
10440;SDS011;5268;49.346;9.522;2022-10-31T09:07:59;6.22;;;4.95;;
10440;SDS011;5268;49.346;9.522;2022-10-31T09:13:06;8.73;;;5.55;;
10440;SDS011;5268;49.346;9.522;2022-10-31T09:18:11;8.07;;;5.60;;
10440;SDS011;5268;49.346;9.522;2022-10-31T09:23:15;8.90;;;5.90;;
10440;SDS011;5268;49.346;9.522;2022-10-31T09:28:20;10.13;;;6.55;;
10440;SDS011;5268;49.346;9.522;2022-10-31T09:33:24;12.25;;;8.65;;
10440;SDS011;5268;49.346;9.522;2022-10-31T09:38:26;13.48;;;11.00;;
10440;SDS011;5268;49.346;9.522;2022-10-31T09:43:31;15.20;;;10.85;;
10440;SDS011;5268;49.346;9.522;2022-10-31T09:48:49;13.45;;;12.05;;
10440;SDS011;5268;49.346;9.522;2022-10-31T09:54:02;15.68;;;12.02;;
10440;SDS011;5268;49.346;9.522;2022-10-31T09:59:12;12.00;;;9.23;;
10440;SDS011;5268;49.346;9.522;2022-10-31T10:04:26;10.68;;;8.32;;
10440;SDS011;5268;49.346;9.522;2022-10-31T10:09:33;12.02;;;9.65;;
10440;SDS011;5268;49.346;9.522;2022-10-31T10:14:41;11.43;;;9.10;;
10440;SDS011;5268;49.346;9.522;2022-10-31T10:19:59;11.90;;;8.43;;
10440;SDS011;5268;49.346;9.522;2022-10-31T10:25:22;9.88;;;8.07;;
10440;SDS011;5268;49.346;9.522;2022-10-31T10:30:29;8.90;;;7.72;;
10440;SDS011;5268;49.346;9.522;2022-10-31T10:35:38;14.98;;;8.98;;
10440;SDS011;5268;49.346;9.522;2022-10-31T10:40:42;12.32;;;9.40;;
10440;SDS011;5268;49.346;9.522;2022-10-31T10:45:48;13.02;;;9.27;;
10440;SDS011;5268;49.346;9.522;2022-10-31T10:51:15;12.15;;;8.70;;
10440;SDS011;5268;49.346;9.522;2022-10-31T10:56:25;11.18;;;7.38;;
10440;SDS011;5268;49.346;9.522;2022-10-31T11:01:39;9.80;;;7.55;;
10440;SDS011;5268;49.346;9.522;2022-10-31T11:06:42;9.38;;;7.20;;
10440;SDS011;5268;49.346;9.522;2022-10-31T11:11:45;11.05;;;7.57;;
10440;SDS011;5268;49.346;9.522;2022-10-31T11:16:49;9.50;;;7.53;;
10440;SDS011;5268;49.346;9.522;2022-10-31T11:21:53;12.68;;;7.03;;
10440;SDS011;5268;49.346;9.522;2022-10-31T11:27:03;10.90;;;6.80;;
10440;SDS011;5268;49.346;9.522;2022-10-31T11:32:18;10.43;;;7.22;;
10440;SDS011;5268;49.346;9.522;2022-10-31T11:37:23;9.25;;;7.00;;
10440;SDS011;5268;49.346;9.522;2022-10-31T11:42:27;10.60;;;4.93;;
10440;SDS011;5268;49.346;9.522;2022-10-31T11:47:37;9.18;;;4.90;;
10440;SDS011;5268;49.346;9.522;2022-10-31T11:52:44;8.60;;;4.55;;
10440;SDS011;5268;49.346;9.522;2022-10-31T11:57:47;6.60;;;4.30;;
10440;SDS011;5268;49.346;9.522;2022-10-31T12:03:03;6.43;;;4.63;;
10440;SDS011;5268;49.346;9.522;2022-10-31T12:08:11;7.22;;;4.53;;
10440;SDS011;5268;49.346;9.522;2022-10-31T12:13:18;7.03;;;4.63;;
10440;SDS011;5268;49.346;9.522;2022-10-31T12:18:39;11.88;;;4.68;;
10440;SDS011;5268;49.346;9.522;2022-10-31T12:24:00;7.13;;;4.60;;
10440;SDS011;5268;49.346;9.522;2022-10-31T12:29:23;8.02;;;4.32;;
10440;SDS011;5268;49.346;9.522;2022-10-31T12:40:09;8.27;;;5.80;;
10440;SDS011;5268;49.346;9.522;2022-10-31T12:45:36;6.88;;;4.30;;
10440;SDS011;5268;49.346;9.522;2022-10-31T12:50:50;5.10;;;4.38;;
10440;SDS011;5268;49.346;9.522;2022-10-31T12:56:00;7.15;;;4.00;;
10440;SDS011;5268;49.346;9.522;2022-10-31T13:01:12;6.22;;;4.55;;
10440;SDS011;5268;49.346;9.522;2022-10-31T13:06:19;6.45;;;4.50;;
10440;SDS011;5268;49.346;9.522;2022-10-31T13:11:25;6.18;;;4.18;;
10440;SDS011;5268;49.346;9.522;2022-10-31T13:16:33;5.75;;;3.97;;
10440;SDS011;5268;49.346;9.522;2022-10-31T13:21:40;5.72;;;4.28;;
10440;SDS011;5268;49.346;9.522;2022-10-31T13:26:46;9.55;;;4.68;;
10440;SDS011;5268;49.346;9.522;2022-10-31T13:31:51;10.55;;;4.55;;
10440;SDS011;5268;49.346;9.522;2022-10-31T13:36:57;7.70;;;5.05;;
10440;SDS011;5268;49.346;9.522;2022-10-31T13:42:08;8.70;;;5.10;;
10440;SDS011;5268;49.346;9.522;2022-10-31T13:47:20;9.85;;;5.00;;
10440;SDS011;5268;49.346;9.522;2022-10-31T13:52:25;7.47;;;5.28;;
10440;SDS011;5268;49.346;9.522;2022-10-31T13:57:32;7.50;;;5.60;;
10440;SDS011;5268;49.346;9.522;2022-10-31T14:02:43;10.10;;;5.75;;
10440;SDS011;5268;49.346;9.522;2022-10-31T14:07:49;10.98;;;6.07;;
10440;SDS011;5268;49.346;9.522;2022-10-31T14:12:53;7.82;;;6.22;;
10440;SDS011;5268;49.346;9.522;2022-10-31T14:18:04;10.73;;;6.68;;
10440;SDS011;5268;49.346;9.522;2022-10-31T14:28:40;10.75;;;7.70;;
10440;SDS011;5268;49.346;9.522;2022-10-31T14:33:42;9.93;;;7.80;;
10440;SDS011;5268;49.346;9.522;2022-10-31T14:38:50;12.20;;;9.13;;
10440;SDS011;5268;49.346;9.522;2022-10-31T14:44:04;8.95;;;7.97;;
10440;SDS011;5268;49.346;9.522;2022-10-31T14:49:26;9.98;;;8.70;;
10440;SDS011;5268;49.346;9.522;2022-10-31T14:54:49;11.02;;;9.10;;
10440;SDS011;5268;49.346;9.522;2022-10-31T14:59:55;13.07;;;9.15;;
10440;SDS011;5268;49.346;9.522;2022-10-31T15:05:05;12.95;;;9.05;;
10440;SDS011;5268;49.346;9.522;2022-10-31T15:10:18;14.95;;;10.88;;
10440;SDS011;5268;49.346;9.522;2022-10-31T15:15:23;15.45;;;10.20;;
10440;SDS011;5268;49.346;9.522;2022-10-31T15:20:27;12.75;;;9.73;;
10440;SDS011;5268;49.346;9.522;2022-10-31T15:25:33;12.88;;;10.73;;
10440;SDS011;5268;49.346;9.522;2022-10-31T15:30:36;14.07;;;11.05;;
10440;SDS011;5268;49.346;9.522;2022-10-31T15:35:38;13.60;;;11.40;;
10440;SDS011;5268;49.346;9.522;2022-10-31T15:40:50;16.25;;;12.38;;
10440;SDS011;5268;49.346;9.522;2022-10-31T15:45:56;15.48;;;12.73;;
10440;SDS011;5268;49.346;9.522;2022-10-31T15:51:06;14.98;;;13.40;;
10440;SDS011;5268;49.346;9.522;2022-10-31T15:56:13;19.92;;;14.55;;
10440;SDS011;5268;49.346;9.522;2022-10-31T16:01:25;18.52;;;14.05;;
10440;SDS011;5268;49.346;9.522;2022-10-31T16:06:29;18.27;;;14.45;;
10440;SDS011;5268;49.346;9.522;2022-10-31T16:11:35;20.90;;;15.27;;
10440;SDS011;5268;49.346;9.522;2022-10-31T16:16:40;19.33;;;15.23;;
10440;SDS011;5268;49.346;9.522;2022-10-31T16:21:44;19.77;;;15.68;;
10440;SDS011;5268;49.346;9.522;2022-10-31T16:26:57;21.35;;;15.05;;
10440;SDS011;5268;49.346;9.522;2022-10-31T16:38:02;19.90;;;16.50;;
10440;SDS011;5268;49.346;9.522;2022-10-31T16:43:08;23.30;;;16.45;;
10440;SDS011;5268;49.346;9.522;2022-10-31T16:48:13;22.15;;;18.23;;
10440;SDS011;5268;49.346;9.522;2022-10-31T16:53:16;24.05;;;17.65;;
10440;SDS011;5268;49.346;9.522;2022-10-31T16:58:20;22.98;;;17.02;;
10440;SDS011;5268;49.346;9.522;2022-10-31T17:03:24;21.92;;;16.92;;
10440;SDS011;5268;49.346;9.522;2022-10-31T17:08:27;21.98;;;18.00;;
10440;SDS011;5268;49.346;9.522;2022-10-31T17:13:31;24.55;;;18.73;;
10440;SDS011;5268;49.346;9.522;2022-10-31T17:18:35;27.60;;;20.17;;
10440;SDS011;5268;49.346;9.522;2022-10-31T17:23:37;27.42;;;19.63;;
10440;SDS011;5268;49.346;9.522;2022-10-31T17:28:41;29.20;;;21.75;;
10440;SDS011;5268;49.346;9.522;2022-10-31T17:33:43;34.15;;;25.13;;
10440;SDS011;5268;49.346;9.522;2022-10-31T17:38:45;28.85;;;20.63;;
10440;SDS011;5268;49.346;9.522;2022-10-31T17:43:49;24.88;;;19.23;;
10440;SDS011;5268;49.346;9.522;2022-10-31T17:48:55;27.48;;;21.77;;
10440;SDS011;5268;49.346;9.522;2022-10-31T17:54:00;20.85;;;17.58;;
10440;SDS011;5268;49.346;9.522;2022-10-31T17:59:03;25.17;;;19.50;;
10440;SDS011;5268;49.346;9.522;2022-10-31T18:04:05;21.35;;;16.60;;
10440;SDS011;5268;49.346;9.522;2022-10-31T18:09:07;28.48;;;21.70;;
10440;SDS011;5268;49.346;9.522;2022-10-31T18:14:10;39.58;;;30.23;;
10440;SDS011;5268;49.346;9.522;2022-10-31T18:19:13;24.92;;;18.10;;
10440;SDS011;5268;49.346;9.522;2022-10-31T18:24:15;24.27;;;18.75;;
10440;SDS011;5268;49.346;9.522;2022-10-31T18:29:19;26.23;;;19.73;;
10440;SDS011;5268;49.346;9.522;2022-10-31T18:34:21;18.10;;;15.75;;
10440;SDS011;5268;49.346;9.522;2022-10-31T18:39:23;19.88;;;16.95;;
10440;SDS011;5268;49.346;9.522;2022-10-31T18:44:26;22.02;;;17.52;;
10440;SDS011;5268;49.346;9.522;2022-10-31T18:49:29;21.13;;;17.35;;
10440;SDS011;5268;49.346;9.522;2022-10-31T18:54:32;20.45;;;17.20;;
10440;SDS011;5268;49.346;9.522;2022-10-31T18:59:35;21.77;;;17.13;;
10440;SDS011;5268;49.346;9.522;2022-10-31T19:04:38;29.33;;;20.13;;
10440;SDS011;5268;49.346;9.522;2022-10-31T19:09:40;30.10;;;21.23;;
10440;SDS011;5268;49.346;9.522;2022-10-31T19:14:43;27.95;;;19.17;;
10440;SDS011;5268;49.346;9.522;2022-10-31T19:19:45;26.80;;;19.23;;
10440;SDS011;5268;49.346;9.522;2022-10-31T19:24:48;44.47;;;24.05;;
10440;SDS011;5268;49.346;9.522;2022-10-31T19:29:51;58.42;;;29.00;;
10440;SDS011;5268;49.346;9.522;2022-10-31T19:34:53;58.35;;;27.00;;
10440;SDS011;5268;49.346;9.522;2022-10-31T19:39:55;29.73;;;22.92;;
10440;SDS011;5268;49.346;9.522;2022-10-31T19:44:58;27.00;;;20.90;;
10440;SDS011;5268;49.346;9.522;2022-10-31T19:50:00;22.63;;;19.00;;
10440;SDS011;5268;49.346;9.522;2022-10-31T19:55:04;19.70;;;16.70;;
10440;SDS011;5268;49.346;9.522;2022-10-31T20:00:09;23.58;;;19.63;;
10440;SDS011;5268;49.346;9.522;2022-10-31T20:05:12;28.95;;;20.25;;
10440;SDS011;5268;49.346;9.522;2022-10-31T20:10:14;20.05;;;17.58;;
10440;SDS011;5268;49.346;9.522;2022-10-31T20:15:17;21.70;;;18.23;;
10440;SDS011;5268;49.346;9.522;2022-10-31T20:20:19;21.95;;;18.02;;
10440;SDS011;5268;49.346;9.522;2022-10-31T20:25:21;23.75;;;19.70;;
10440;SDS011;5268;49.346;9.522;2022-10-31T20:30:25;26.77;;;19.88;;
10440;SDS011;5268;49.346;9.522;2022-10-31T20:35:27;29.92;;;21.85;;
10440;SDS011;5268;49.346;9.522;2022-10-31T20:40:29;27.52;;;20.00;;
10440;SDS011;5268;49.346;9.522;2022-10-31T20:45:32;20.70;;;17.65;;
10440;SDS011;5268;49.346;9.522;2022-10-31T20:50:36;16.75;;;14.95;;
10440;SDS011;5268;49.346;9.522;2022-10-31T20:55:39;20.48;;;17.35;;
10440;SDS011;5268;49.346;9.522;2022-10-31T21:00:42;20.13;;;17.45;;
10440;SDS011;5268;49.346;9.522;2022-10-31T21:05:50;15.60;;;13.90;;
10440;SDS011;5268;49.346;9.522;2022-10-31T21:10:53;27.73;;;18.15;;
10440;SDS011;5268;49.346;9.522;2022-10-31T21:16:00;74.03;;;36.58;;
10440;SDS011;5268;49.346;9.522;2022-10-31T21:21:06;86.45;;;41.72;;
10440;SDS011;5268;49.346;9.522;2022-10-31T21:26:10;60.80;;;25.73;;
10440;SDS011;5268;49.346;9.522;2022-10-31T21:31:16;30.98;;;24.58;;
10440;SDS011;5268;49.346;9.522;2022-10-31T21:36:18;140.18;;;30.08;;
10440;SDS011;5268;49.346;9.522;2022-10-31T21:41:21;103.35;;;21.75;;
10440;SDS011;5268;49.346;9.522;2022-10-31T21:46:26;18.35;;;15.98;;
10440;SDS011;5268;49.346;9.522;2022-10-31T21:51:30;129.93;;;28.15;;
10440;SDS011;5268;49.346;9.522;2022-10-31T21:56:33;53.50;;;27.35;;
10440;SDS011;5268;49.346;9.522;2022-10-31T22:01:37;51.50;;;19.95;;
10440;SDS011;5268;49.346;9.522;2022-10-31T22:06:39;54.33;;;21.92;;
10440;SDS011;5268;49.346;9.522;2022-10-31T22:11:41;31.00;;;23.52;;
10440;SDS011;5268;49.346;9.522;2022-10-31T22:16:45;25.55;;;20.08;;
10440;SDS011;5268;49.346;9.522;2022-10-31T22:21:47;27.05;;;22.08;;
10440;SDS011;5268;49.346;9.522;2022-10-31T22:26:49;34.03;;;21.00;;
